Time;durP1;ratioP1;P1;durP2;ratioP2;P2;SDS_P1;SDS_P2;PMS_P1;PMS_P2;Temp;Humidity;BMP_temperature;BMP_pressure;BME280_temperature;BME280_humidity;BME280_pressure;Samples;Min_cycle;Max_cycle;Signal;HPM_P1;HPM_P2
2023/08/06 00:00:05;;;;;;;2.95;1.00;;;19.60;99.90;;;;;;5052361;28;20032;-44
2023/08/06 00:02:31;;;;;;;2.20;1.00;;;19.60;99.90;;;;;;5052075;28;20096;-41
2023/08/06 00:04:56;;;;;;;1.42;1.00;;;19.60;99.90;;;;;;5052500;28;20108;-46
2023/08/06 00:07:22;;;;;;;1.10;1.00;;;19.60;99.90;;;;;;5052375;28;20472;-44
2023/08/06 00:09:48;;;;;;;1.20;1.10;;;19.60;99.90;;;;;;5052009;28;20476;-42
2023/08/06 00:12:13;;;;;;;1.50;1.27;;;19.60;99.90;;;;;;5052366;28;20025;-42
2023/08/06 00:14:39;;;;;;;2.03;1.20;;;19.60;99.90;;;;;;5052362;28;20388;-43
2023/08/06 00:17:05;;;;;;;2.63;1.10;;;19.60;99.90;;;;;;5052143;28;20074;-42
2023/08/06 00:19:31;;;;;;;1.10;0.90;;;19.60;99.90;;;;;;5051998;28;20044;-43
2023/08/06 00:21:57;;;;;;;1.10;0.95;;;19.60;99.90;;;;;;5052121;28;20021;-44
2023/08/06 00:24:23;;;;;;;0.93;0.85;;;19.60;99.90;;;;;;5051788;28;20323;-42
2023/08/06 00:26:48;;;;;;;1.65;1.10;;;19.60;99.90;;;;;;5051976;28;20025;-42
2023/08/06 00:29:14;;;;;;;2.25;1.23;;;19.60;99.90;;;;;;5051719;28;20075;-44
2023/08/06 00:31:40;;;;;;;1.40;1.10;;;19.60;99.90;;;;;;5051889;28;20392;-45
2023/08/06 00:34:05;;;;;;;2.15;1.05;;;19.60;99.90;;;;;;5051750;28;20029;-44
2023/08/06 00:36:31;;;;;;;1.23;1.02;;;19.60;99.90;;;;;;5051831;28;20033;-42
2023/08/06 00:38:56;;;;;;;1.45;1.20;;;19.60;99.90;;;;;;5051587;28;20039;-44
2023/08/06 00:41:22;;;;;;;3.53;1.27;;;19.60;99.90;;;;;;5051904;28;20024;-44
2023/08/06 00:43:48;;;;;;;2.08;1.35;;;19.50;99.90;;;;;;5051622;28;20078;-44
2023/08/06 00:46:14;;;;;;;1.00;0.90;;;19.60;99.90;;;;;;5051580;28;20091;-45
2023/08/06 00:48:41;;;;;;;1.42;1.08;;;19.60;99.90;;;;;;5051646;28;20021;-44
2023/08/06 00:51:08;;;;;;;1.50;1.00;;;19.50;99.90;;;;;;5050524;28;20017;-44
2023/08/06 00:53:34;;;;;;;1.75;1.00;;;19.60;99.90;;;;;;5051921;28;20025;-43
2023/08/06 00:56:01;;;;;;;1.67;1.10;;;19.50;99.90;;;;;;5051716;28;20039;-41
2023/08/06 00:58:27;;;;;;;1.50;0.98;;;19.60;99.90;;;;;;5051521;28;20017;-44
2023/08/06 01:00:52;;;;;;;1.85;1.13;;;19.50;99.90;;;;;;5051280;28;20029;-44
2023/08/06 01:03:18;;;;;;;1.70;1.30;;;19.50;99.90;;;;;;5051386;28;20025;-44
2023/08/06 01:05:43;;;;;;;1.20;1.10;;;19.50;99.90;;;;;;5051393;28;20025;-44
2023/08/06 01:08:36;;;;;;;1.60;1.20;;;19.50;99.90;;;;;;5051248;28;20029;-43
2023/08/06 01:11:17;;;;;;;1.15;1.02;;;19.50;99.90;;;;;;5051401;28;20036;-43
2023/08/06 01:13:47;;;;;;;2.58;1.45;;;19.50;99.90;;;;;;5050638;28;20104;-44
2023/08/06 01:16:17;;;;;;;1.88;1.30;;;19.50;99.90;;;;;;5051356;28;20151;-40
2023/08/06 01:18:45;;;;;;;2.55;1.20;;;19.50;99.90;;;;;;5051145;28;20025;-43
2023/08/06 01:21:12;;;;;;;1.23;1.13;;;19.50;99.90;;;;;;5051272;28;20392;-45
2023/08/06 01:23:38;;;;;;;2.17;1.00;;;19.50;99.90;;;;;;5051487;28;20552;-44
2023/08/06 01:26:36;;;;;;;3.05;1.20;;;19.50;99.90;;;;;;5049789;28;20215;-44
2023/08/06 01:29:14;;;;;;;1.50;1.17;;;19.50;99.90;;;;;;5050940;28;20025;-45
2023/08/06 01:31:43;;;;;;;2.20;1.20;;;19.50;99.90;;;;;;5051060;28;20036;-42
2023/08/06 01:34:16;;;;;;;1.70;1.10;;;19.50;99.90;;;;;;5050959;28;20117;-43
2023/08/06 01:36:42;;;;;;;1.95;1.23;;;19.50;99.90;;;;;;5051131;28;20053;-43
2023/08/06 01:39:08;;;;;;;2.22;1.20;;;19.50;99.90;;;;;;5050765;28;20106;-44
2023/08/06 01:41:33;;;;;;;1.52;1.02;;;19.50;99.90;;;;;;5050887;28;20484;-41
2023/08/06 01:43:59;;;;;;;1.88;1.20;;;19.50;99.90;;;;;;5049579;28;20025;-43
2023/08/06 01:46:24;;;;;;;1.58;1.00;;;19.50;99.90;;;;;;5050826;28;20021;-41
2023/08/06 01:48:50;;;;;;;3.30;1.25;;;19.50;99.90;;;;;;5050784;28;20017;-41
2023/08/06 01:51:16;;;;;;;1.20;1.00;;;19.50;99.90;;;;;;5051194;28;20040;-43
2023/08/06 01:53:41;;;;;;;1.00;0.90;;;19.50;99.90;;;;;;5050724;28;20022;-45
2023/08/06 01:56:07;;;;;;;1.25;1.00;;;19.50;99.90;;;;;;5050785;28;20377;-44
2023/08/06 01:58:32;;;;;;;2.42;1.10;;;19.40;99.90;;;;;;5050913;28;20033;-42
2023/08/06 02:00:58;;;;;;;1.60;1.13;;;19.50;99.90;;;;;;5050914;28;20025;-44
2023/08/06 02:03:24;;;;;;;2.90;1.13;;;19.50;99.90;;;;;;5050712;28;20072;-44
2023/08/06 02:05:49;;;;;;;2.50;1.10;;;19.40;99.90;;;;;;5051083;28;20021;-44
2023/08/06 02:08:15;;;;;;;2.30;1.05;;;19.40;99.90;;;;;;5050799;28;20079;-42
2023/08/06 02:10:41;;;;;;;1.17;1.00;;;19.50;99.90;;;;;;5050761;28;20109;-44
2023/08/06 02:13:07;;;;;;;1.67;1.10;;;19.40;99.90;;;;;;5050777;28;20017;-45
2023/08/06 02:15:32;;;;;;;1.38;1.10;;;19.40;99.90;;;;;;5050667;28;20091;-43
2023/08/06 02:17:58;;;;;;;3.42;1.13;;;19.50;99.90;;;;;;5050743;28;20500;-42
2023/08/06 02:20:23;;;;;;;1.42;1.05;;;19.40;99.90;;;;;;5050492;28;20033;-44
2023/08/06 02:22:49;;;;;;;1.52;1.35;;;19.40;99.90;;;;;;5050757;28;20041;-42
2023/08/06 02:25:15;;;;;;;1.77;1.10;;;19.40;99.90;;;;;;5052594;28;20053;-44
2023/08/06 02:27:40;;;;;;;1.95;1.15;;;19.40;99.90;;;;;;5054209;28;20395;-43
2023/08/06 02:30:06;;;;;;;1.13;1.02;;;19.40;99.90;;;;;;5053990;28;20544;-41
2023/08/06 02:32:35;;;;;;;2.22;0.82;;;19.40;99.90;;;;;;5054150;28;20373;-44
2023/08/06 02:35:01;;;;;;;2.22;1.23;;;19.40;99.90;;;;;;5054164;28;20021;-43
2023/08/06 02:37:27;;;;;;;1.95;1.00;;;19.40;99.90;;;;;;5054046;28;20025;-42
2023/08/06 02:39:53;;;;;;;2.50;1.10;;;19.40;99.90;;;;;;5053898;28;20165;-44
2023/08/06 02:42:18;;;;;;;1.77;1.25;;;19.40;99.90;;;;;;5054068;28;20021;-42
2023/08/06 02:44:44;;;;;;;2.28;1.45;;;19.40;99.90;;;;;;5053820;28;20440;-44
2023/08/06 02:47:10;;;;;;;4.10;1.20;;;19.40;99.90;;;;;;5053839;28;20035;-44
2023/08/06 02:49:35;;;;;;;1.45;1.15;;;19.40;99.90;;;;;;5053763;28;20052;-43
2023/08/06 02:52:01;;;;;;;2.17;1.15;;;19.40;99.90;;;;;;5053875;28;20021;-43
2023/08/06 02:54:26;;;;;;;2.05;1.48;;;19.40;99.90;;;;;;5053672;28;20114;-44
2023/08/06 02:56:52;;;;;;;2.03;1.10;;;19.40;99.90;;;;;;5053759;28;20021;-42
2023/08/06 02:59:18;;;;;;;2.10;1.10;;;19.40;99.90;;;;;;5053522;28;20028;-43
2023/08/06 03:01:43;;;;;;;2.22;1.10;;;19.40;99.90;;;;;;5053700;28;20021;-42
2023/08/06 03:04:09;;;;;;;1.77;1.10;;;19.40;99.90;;;;;;5053576;28;20544;-42
2023/08/06 03:06:34;;;;;;;2.92;1.30;;;19.40;99.90;;;;;;5053500;28;20049;-43
2023/08/06 03:09:00;;;;;;;2.28;1.20;;;19.40;99.90;;;;;;5053310;28;20025;-45
2023/08/06 03:11:25;;;;;;;1.42;1.10;;;19.40;99.90;;;;;;5053489;28;20479;-43
2023/08/06 03:13:51;;;;;;;1.50;1.13;;;19.40;99.90;;;;;;5053356;28;20022;-43
2023/08/06 03:16:17;;;;;;;1.95;1.50;;;19.40;99.90;;;;;;5053441;28;20067;-45
2023/08/06 03:18:42;;;;;;;1.17;1.00;;;19.40;99.90;;;;;;5053275;28;20040;-45
2023/08/06 03:21:08;;;;;;;1.95;1.20;;;19.40;99.90;;;;;;5053230;28;20029;-41
2023/08/06 03:23:33;;;;;;;2.13;1.20;;;19.40;99.90;;;;;;5052993;28;20500;-40
2023/08/06 03:26:02;;;;;;;1.80;1.13;;;19.40;99.90;;;;;;5053195;28;20025;-43
2023/08/06 03:28:28;;;;;;;2.08;1.20;;;19.40;99.90;;;;;;5053161;28;20408;-45
2023/08/06 03:31:01;;;;;;;1.70;1.23;;;19.40;99.90;;;;;;5052968;28;20021;-41
2023/08/06 03:33:27;;;;;;;1.20;1.10;;;19.40;99.90;;;;;;5053013;28;20027;-43
2023/08/06 03:35:52;;;;;;;1.38;1.20;;;19.40;99.90;;;;;;5051512;28;20021;-44
2023/08/06 03:38:18;;;;;;;2.60;1.30;;;19.30;99.90;;;;;;5067871;28;20093;-43
2023/08/06 03:40:43;;;;;;;2.72;1.02;;;19.40;99.90;;;;;;5052751;28;20032;-44
2023/08/06 03:43:09;;;;;;;1.35;0.93;;;19.30;99.90;;;;;;5052808;28;20017;-41
2023/08/06 03:45:34;;;;;;;1.67;1.05;;;19.40;99.90;;;;;;5052884;28;20024;-46
2023/08/06 03:48:00;;;;;;;3.00;1.20;;;19.40;99.90;;;;;;5052782;28;20021;-45
2023/08/06 03:50:26;;;;;;;1.30;1.20;;;19.30;99.90;;;;;;5052695;28;20024;-44
2023/08/06 03:52:51;;;;;;;1.92;1.10;;;19.40;99.90;;;;;;5052613;28;20306;-45
2023/08/06 03:55:17;;;;;;;1.67;1.23;;;19.30;99.90;;;;;;5052625;28;20038;-43
2023/08/06 03:57:42;;;;;;;2.35;1.15;;;19.30;99.90;;;;;;5052629;28;20508;-43
2023/08/06 04:00:08;;;;;;;5.07;1.27;;;19.30;99.90;;;;;;5052405;28;20025;-43
2023/08/06 04:02:34;;;;;;;2.28;1.25;;;19.30;99.90;;;;;;5052455;28;20031;-44
2023/08/06 04:05:01;;;;;;;2.17;1.25;;;19.30;99.90;;;;;;5052433;28;20029;-44
2023/08/06 04:07:27;;;;;;;1.92;1.20;;;19.40;99.90;;;;;;5052287;28;20055;-43
2023/08/06 04:09:59;;;;;;;1.90;1.10;;;19.30;99.90;;;;;;5052134;28;20020;-41
2023/08/06 04:12:26;;;;;;;2.15;1.25;;;19.30;99.90;;;;;;5052210;28;20380;-42
2023/08/06 04:14:52;;;;;;;1.30;1.10;;;19.30;99.90;;;;;;5052273;28;20026;-44
2023/08/06 04:17:21;;;;;;;1.85;1.20;;;19.30;99.90;;;;;;5052209;28;20033;-42
2023/08/06 04:19:49;;;;;;;1.50;1.25;;;19.30;99.90;;;;;;5051860;28;20028;-44
2023/08/06 04:22:14;;;;;;;1.58;1.10;;;19.30;99.90;;;;;;5052355;28;20043;-44
2023/08/06 04:24:40;;;;;;;1.88;1.02;;;19.30;99.90;;;;;;5051881;28;20040;-44
2023/08/06 04:27:06;;;;;;;1.58;1.17;;;19.30;99.90;;;;;;5051907;28;20103;-43
2023/08/06 04:29:31;;;;;;;1.38;0.80;;;19.30;99.90;;;;;;5052060;28;20052;-43
2023/08/06 04:31:57;;;;;;;2.35;1.20;;;19.30;99.90;;;;;;5052028;28;20025;-40
2023/08/06 04:34:23;;;;;;;1.27;1.05;;;19.30;99.90;;;;;;5051785;28;20028;-42
2023/08/06 04:36:48;;;;;;;2.78;1.08;;;19.30;99.90;;;;;;5051946;28;20385;-45
2023/08/06 04:39:14;;;;;;;2.08;1.15;;;19.30;99.90;;;;;;5051647;28;20062;-43
2023/08/06 04:41:40;;;;;;;2.10;1.10;;;19.30;99.90;;;;;;5051919;28;20074;-44
2023/08/06 04:44:05;;;;;;;1.15;0.95;;;19.30;99.90;;;;;;5051710;28;20048;-44
2023/08/06 04:46:31;;;;;;;2.55;1.00;;;19.30;99.90;;;;;;5051626;28;20025;-44
2023/08/06 04:48:56;;;;;;;3.00;1.00;;;19.30;99.90;;;;;;5050584;28;20028;-44
2023/08/06 04:51:22;;;;;;;2.42;1.13;;;19.30;99.90;;;;;;5051607;28;20541;-45
2023/08/06 04:53:48;;;;;;;2.28;1.10;;;19.30;99.90;;;;;;5051503;28;20021;-44
2023/08/06 04:56:13;;;;;;;2.35;1.02;;;19.30;99.90;;;;;;5051492;28;20476;-44
2023/08/06 04:58:39;;;;;;;1.25;0.90;;;19.30;99.90;;;;;;5051503;28;20029;-47
2023/08/06 05:01:05;;;;;;;1.63;0.88;;;19.30;99.90;;;;;;5051315;28;20103;-42
2023/08/06 05:03:30;;;;;;;1.45;0.98;;;19.30;99.90;;;;;;5051248;28;20037;-43
2023/08/06 05:05:56;;;;;;;2.10;1.10;;;19.30;99.90;;;;;;5050012;28;20110;-42
2023/08/06 05:08:21;;;;;;;2.67;0.98;;;19.30;99.90;;;;;;5051408;28;20032;-42
2023/08/06 05:10:47;;;;;;;1.95;0.80;;;19.30;99.90;;;;;;5051092;28;20051;-43
2023/08/06 05:13:13;;;;;;;1.80;0.80;;;19.30;99.90;;;;;;5051287;28;20412;-41
2023/08/06 05:15:42;;;;;;;1.33;0.90;;;19.30;99.90;;;;;;5051284;28;20021;-44
2023/08/06 05:18:08;;;;;;;1.17;0.88;;;19.30;99.90;;;;;;5051143;28;20116;-43
2023/08/06 05:20:37;;;;;;;2.53;0.90;;;19.30;99.90;;;;;;5051060;28;20479;-44
2023/08/06 05:23:03;;;;;;;0.95;0.70;;;19.30;99.90;;;;;;5051001;28;20029;-42
2023/08/06 05:25:28;;;;;;;1.10;0.70;;;19.30;99.90;;;;;;5051134;28;20021;-45
2023/08/06 05:27:54;;;;;;;1.48;0.70;;;19.30;99.90;;;;;;5051051;28;20074;-43
2023/08/06 05:30:19;;;;;;;1.65;0.90;;;19.30;99.90;;;;;;5050896;28;20021;-44
2023/08/06 05:32:45;;;;;;;2.03;0.77;;;19.30;99.90;;;;;;5050967;28;20039;-44
2023/08/06 05:35:10;;;;;;;2.47;0.70;;;19.30;99.90;;;;;;5051054;28;20025;-44
2023/08/06 05:37:36;;;;;;;1.85;0.93;;;19.30;99.90;;;;;;5051082;28;20517;-44
2023/08/06 05:40:03;;;;;;;1.70;0.90;;;19.30;99.90;;;;;;5050876;28;20439;-42
2023/08/06 05:42:29;;;;;;;2.03;1.10;;;19.30;99.90;;;;;;5050987;28;20029;-44
2023/08/06 05:44:55;;;;;;;1.13;0.80;;;19.30;99.90;;;;;;5051025;28;20377;-44
2023/08/06 05:47:20;;;;;;;1.85;0.70;;;19.30;99.90;;;;;;5050900;28;20420;-44
2023/08/06 05:49:46;;;;;;;0.77;0.50;;;19.30;99.90;;;;;;5050753;28;20105;-44
2023/08/06 05:52:12;;;;;;;1.75;0.70;;;19.30;99.90;;;;;;5051007;28;20135;-42
2023/08/06 05:54:37;;;;;;;2.85;0.60;;;19.30;99.90;;;;;;5050744;28;20384;-45
2023/08/06 05:57:03;;;;;;;1.77;0.77;;;19.30;99.90;;;;;;5050901;28;20033;-44
2023/08/06 05:59:29;;;;;;;0.73;0.55;;;19.30;99.90;;;;;;5051043;28;20083;-40
2023/08/06 06:01:54;;;;;;;2.33;0.80;;;19.30;99.90;;;;;;5054750;28;20037;-43
2023/08/06 06:04:20;;;;;;;1.17;0.73;;;19.30;99.90;;;;;;5054663;28;20499;-42
2023/08/06 06:06:46;;;;;;;1.20;0.90;;;19.30;99.90;;;;;;5054847;28;20033;-41
2023/08/06 06:09:12;;;;;;;1.20;0.70;;;19.30;99.90;;;;;;5054399;28;20017;-44
2023/08/06 06:11:37;;;;;;;1.90;0.80;;;19.30;99.90;;;;;;5054630;28;20021;-44
2023/08/06 06:14:03;;;;;;;1.55;0.70;;;19.30;99.90;;;;;;5054523;28;20017;-42
2023/08/06 06:16:28;;;;;;;1.52;0.68;;;19.30;99.90;;;;;;5054413;28;20366;-44
2023/08/06 06:18:54;;;;;;;1.55;0.60;;;19.30;99.90;;;;;;5054334;28;20032;-44
2023/08/06 06:21:20;;;;;;;1.58;0.75;;;19.30;99.90;;;;;;5054407;28;20370;-44
2023/08/06 06:23:46;;;;;;;1.17;0.70;;;19.30;99.90;;;;;;5054169;28;20120;-43
2023/08/06 06:26:12;;;;;;;1.05;0.60;;;19.30;99.90;;;;;;5054681;28;20444;-42
2023/08/06 06:28:37;;;;;;;1.23;0.70;;;19.30;99.90;;;;;;5054324;28;20029;-44
2023/08/06 06:31:03;;;;;;;1.27;0.60;;;19.30;99.90;;;;;;5054063;28;20484;-44
2023/08/06 06:33:29;;;;;;;1.10;0.52;;;19.30;99.90;;;;;;5054255;28;20021;-42
2023/08/06 06:35:54;;;;;;;0.98;0.70;;;19.30;99.90;;;;;;5054187;28;20159;-40
2023/08/06 06:38:20;;;;;;;1.33;0.77;;;19.30;99.90;;;;;;5054123;28;20100;-42
2023/08/06 06:40:58;;;;;;;1.38;0.63;;;19.30;99.90;;;;;;5053988;28;20395;-44
2023/08/06 06:43:24;;;;;;;1.05;0.55;;;19.30;99.90;;;;;;5053882;28;20486;-46
2023/08/06 06:46:00;;;;;;;1.25;0.60;;;19.30;99.90;;;;;;5054081;28;20049;-40
2023/08/06 06:48:28;;;;;;;1.48;0.70;;;19.30;99.90;;;;;;5053987;28;20029;-44
2023/08/06 06:50:53;;;;;;;1.40;0.43;;;19.30;99.90;;;;;;5053730;28;20033;-45
2023/08/06 06:53:19;;;;;;;0.88;0.60;;;19.30;99.90;;;;;;5053779;28;20539;-44
2023/08/06 06:55:44;;;;;;;0.73;0.40;;;19.30;99.90;;;;;;5053802;28;20013;-43
2023/08/06 06:58:10;;;;;;;0.70;0.60;;;19.30;99.90;;;;;;5053828;28;20028;-43
2023/08/06 07:00:37;;;;;;;1.25;0.60;;;19.30;99.90;;;;;;5053564;28;20100;-44
2023/08/06 07:03:03;;;;;;;0.75;0.40;;;19.30;99.90;;;;;;5053709;28;20395;-43
2023/08/06 07:05:28;;;;;;;1.42;0.60;;;19.30;99.90;;;;;;5053656;28;20025;-42
2023/08/06 07:07:54;;;;;;;0.77;0.60;;;19.30;99.90;;;;;;5053875;28;20467;-45
2023/08/06 07:10:20;;;;;;;1.10;0.70;;;19.30;99.90;;;;;;5053857;28;20570;-42
2023/08/06 07:12:45;;;;;;;1.00;0.50;;;19.30;99.90;;;;;;5052357;28;20022;-44
2023/08/06 07:15:11;;;;;;;0.65;0.52;;;19.30;99.90;;;;;;5053723;28;20367;-45
2023/08/06 07:17:37;;;;;;;0.65;0.40;;;19.30;99.90;;;;;;5053414;28;20035;-43
2023/08/06 07:20:03;;;;;;;0.65;0.40;;;19.30;99.90;;;;;;5053148;28;20472;-45
2023/08/06 07:22:28;;;;;;;1.25;0.70;;;19.30;99.90;;;;;;5051827;28;20108;-44
2023/08/06 07:24:54;;;;;;;1.20;0.50;;;19.30;99.90;;;;;;5053846;28;20120;-44
2023/08/06 07:27:19;;;;;;;0.88;0.47;;;19.30;99.90;;;;;;5053088;28;20056;-44
2023/08/06 07:29:45;;;;;;;0.77;0.38;;;19.30;99.90;;;;;;5052951;28;20033;-42
2023/08/06 07:32:11;;;;;;;0.45;0.35;;;19.30;99.90;;;;;;5053156;28;20039;-41
2023/08/06 07:34:36;;;;;;;0.68;0.43;;;19.30;99.90;;;;;;5053013;28;20040;-43
2023/08/06 07:37:02;;;;;;;0.43;0.30;;;19.30;99.90;;;;;;5053078;28;20071;-43
2023/08/06 07:39:28;;;;;;;0.90;0.55;;;19.30;99.90;;;;;;5052754;28;20017;-44
2023/08/06 07:41:54;;;;;;;0.80;0.40;;;19.30;99.90;;;;;;5052794;28;20025;-43
2023/08/06 07:44:20;;;;;;;1.00;0.47;;;19.30;99.90;;;;;;5053044;28;20036;-48
2023/08/06 07:46:45;;;;;;;0.75;0.45;;;19.20;99.90;;;;;;5052826;28;20578;-42
2023/08/06 07:49:11;;;;;;;0.50;0.40;;;19.20;99.90;;;;;;5052613;28;20377;-47
2023/08/06 07:51:37;;;;;;;0.63;0.43;;;19.30;99.90;;;;;;5052918;28;20100;-46
2023/08/06 07:54:03;;;;;;;1.10;0.40;;;19.30;99.90;;;;;;5052672;28;20017;-43
2023/08/06 07:56:28;;;;;;;0.85;0.43;;;19.30;99.90;;;;;;5052584;28;20029;-43
2023/08/06 07:58:54;;;;;;;0.70;0.40;;;19.30;99.90;;;;;;5052472;28;20021;-44
2023/08/06 08:01:20;;;;;;;0.60;0.32;;;19.30;99.90;;;;;;5053210;28;20114;-43
2023/08/06 08:03:45;;;;;;;1.20;0.30;;;19.30;99.90;;;;;;5052745;28;20025;-44
2023/08/06 08:06:11;;;;;;;0.95;0.35;;;19.30;99.90;;;;;;5052369;28;20052;-44
2023/08/06 08:08:38;;;;;;;0.65;0.30;;;19.30;99.90;;;;;;5052476;28;20404;-43
2023/08/06 08:11:04;;;;;;;0.50;0.30;;;19.30;99.90;;;;;;5052230;28;20550;-43
2023/08/06 08:13:30;;;;;;;0.68;0.30;;;19.30;99.90;;;;;;5052371;28;20056;-41
2023/08/06 08:15:59;;;;;;;3.08;0.40;;;19.30;99.90;;;;;;5052372;28;20237;-44
2023/08/06 08:18:25;;;;;;;2.03;0.40;;;19.30;99.90;;;;;;5052292;28;20017;-43
2023/08/06 08:20:50;;;;;;;0.75;0.40;;;19.30;99.90;;;;;;5052011;28;20025;-42
2023/08/06 08:23:16;;;;;;;1.02;0.40;;;19.30;99.90;;;;;;5051987;28;20036;-41
2023/08/06 08:25:41;;;;;;;0.40;0.35;;;19.30;99.90;;;;;;5052104;28;20443;-43
2023/08/06 08:28:08;;;;;;;2.50;0.30;;;19.30;99.90;;;;;;5051986;28;20025;-44
2023/08/06 08:30:33;;;;;;;0.35;0.30;;;19.30;99.90;;;;;;5050591;28;20033;-44
2023/08/06 08:32:59;;;;;;;0.50;0.30;;;19.30;99.90;;;;;;5051902;28;20431;-41
2023/08/06 08:35:25;;;;;;;0.60;0.30;;;19.30;99.90;;;;;;5051944;28;20021;-44
2023/08/06 08:37:51;;;;;;;0.68;0.30;;;19.30;99.90;;;;;;5051922;28;20476;-45
2023/08/06 08:40:17;;;;;;;0.70;0.50;;;19.30;99.90;;;;;;5051914;28;20025;-42
2023/08/06 08:42:43;;;;;;;1.02;0.60;;;19.30;99.90;;;;;;5051885;28;20392;-45
2023/08/06 08:45:14;;;;;;;1.02;0.50;;;19.30;99.90;;;;;;5051792;28;20059;-41
2023/08/06 08:47:42;;;;;;;2.05;0.40;;;19.30;99.90;;;;;;5051845;28;20395;-41
2023/08/06 08:50:09;;;;;;;1.40;0.30;;;19.30;99.90;;;;;;5051497;28;20021;-42
2023/08/06 08:52:38;;;;;;;0.40;0.20;;;19.30;99.90;;;;;;5051422;28;20025;-44
2023/08/06 08:55:04;;;;;;;0.50;0.20;;;19.30;99.90;;;;;;5051615;28;20468;-42
2023/08/06 08:57:29;;;;;;;0.60;0.32;;;19.20;99.90;;;;;;5051753;28;20024;-45
2023/08/06 08:59:55;;;;;;;0.70;0.30;;;19.30;99.90;;;;;;5051269;28;20029;-43
2023/08/06 09:02:23;;;;;;;0.60;0.32;;;19.30;99.90;;;;;;5051497;28;20104;-43
2023/08/06 09:04:49;;;;;;;0.75;0.35;;;19.30;99.90;;;;;;5051321;28;20135;-44
2023/08/06 09:07:19;;;;;;;0.50;0.30;;;19.30;99.90;;;;;;5051252;28;20094;-42
2023/08/06 09:09:48;;;;;;;1.08;0.55;;;19.30;99.90;;;;;;5051245;28;20025;-43
2023/08/06 09:12:15;;;;;;;0.30;0.20;;;19.30;99.90;;;;;;5051371;28;20043;-42
2023/08/06 09:14:42;;;;;;;0.40;0.30;;;19.30;99.90;;;;;;5051266;28;20021;-44
2023/08/06 09:17:10;;;;;;;0.25;0.20;;;19.30;99.90;;;;;;5051315;28;20033;-42
2023/08/06 09:19:36;;;;;;;0.40;0.30;;;19.30;99.90;;;;;;5050985;28;20029;-42
2023/08/06 09:22:02;;;;;;;1.25;0.35;;;19.30;99.90;;;;;;5051239;28;20021;-43
2023/08/06 09:24:28;;;;;;;1.05;0.43;;;19.30;99.90;;;;;;5051100;28;20036;-44
2023/08/06 09:26:54;;;;;;;0.40;0.25;;;19.30;99.90;;;;;;5051116;28;20090;-42
2023/08/06 09:29:20;;;;;;;0.40;0.30;;;19.30;99.90;;;;;;5051028;28;20021;-43
2023/08/06 09:31:53;;;;;;;0.30;0.25;;;19.30;99.90;;;;;;5051198;28;20492;-41
2023/08/06 09:34:22;;;;;;;0.30;0.20;;;19.30;99.90;;;;;;5051990;28;20032;-43
2023/08/06 09:36:53;;;;;;;0.50;0.20;;;19.30;99.90;;;;;;5057769;28;20027;-41
2023/08/06 09:39:20;;;;;;;0.35;0.20;;;19.30;99.90;;;;;;5057588;28;20028;-41
2023/08/06 09:41:50;;;;;;;0.30;0.20;;;19.30;99.90;;;;;;5057687;28;20028;-42
2023/08/06 09:44:18;;;;;;;0.30;0.22;;;19.30;99.90;;;;;;5057605;28;20033;-42
2023/08/06 09:46:51;;;;;;;0.40;0.30;;;19.30;99.90;;;;;;5057537;28;20029;-43
2023/08/06 09:49:22;;;;;;;0.70;0.30;;;19.30;99.90;;;;;;5057447;28;20029;-42
2023/08/06 09:51:50;;;;;;;0.60;0.30;;;19.30;99.90;;;;;;5057590;28;20404;-46
2023/08/06 09:54:18;;;;;;;0.75;0.40;;;19.30;99.90;;;;;;5057536;28;20082;-44
2023/08/06 09:56:45;;;;;;;0.47;0.20;;;19.30;99.90;;;;;;5057592;28;20032;-45
2023/08/06 09:59:13;;;;;;;1.10;0.38;;;19.30;99.90;;;;;;5057227;28;20020;-42
2023/08/06 10:01:39;;;;;;;0.50;0.20;;;19.30;99.90;;;;;;5057543;28;20032;-44
2023/08/06 10:04:11;;;;;;;0.50;0.15;;;19.30;99.90;;;;;;5057402;28;20381;-45
2023/08/06 10:06:37;;;;;;;0.43;0.22;;;19.20;99.90;;;;;;5057563;28;20120;-45
2023/08/06 10:09:06;;;;;;;0.20;0.20;;;19.20;99.90;;;;;;5057318;28;20017;-45
2023/08/06 10:11:31;;;;;;;0.55;0.20;;;19.20;99.90;;;;;;5057503;28;20044;-45
2023/08/06 10:14:03;;;;;;;0.40;0.30;;;19.20;99.90;;;;;;5057258;28;20013;-44
2023/08/06 10:16:30;;;;;;;0.30;0.10;;;19.20;99.90;;;;;;5056119;28;20040;-43
2023/08/06 10:18:57;;;;;;;0.70;0.28;;;19.30;99.90;;;;;;5057251;28;20039;-42
2023/08/06 10:21:24;;;;;;;0.50;0.30;;;19.20;99.90;;;;;;5057347;28;20033;-44
2023/08/06 10:23:55;;;;;;;0.30;0.20;;;19.20;99.90;;;;;;5057577;28;20036;-46
2023/08/06 10:26:25;;;;;;;0.30;0.20;;;19.20;99.90;;;;;;5057186;28;20400;-41
2023/08/06 10:28:52;;;;;;;0.30;0.20;;;19.30;99.90;;;;;;5057757;28;20383;-46
2023/08/06 10:31:18;;;;;;;0.20;0.20;;;19.20;99.90;;;;;;5057342;28;20021;-46
2023/08/06 10:33:46;;;;;;;0.60;0.25;;;19.30;99.90;;;;;;5057192;28;20021;-42
2023/08/06 10:36:13;;;;;;;0.08;0.08;;;19.20;99.90;;;;;;5057327;28;20025;-43
2023/08/06 10:38:49;;;;;;;0.20;0.17;;;19.20;99.90;;;;;;5057317;28;20021;-43
2023/08/06 10:41:29;;;;;;;0.20;0.10;;;19.20;99.90;;;;;;5057276;28;20100;-41
2023/08/06 10:44:10;;;;;;;0.60;0.20;;;19.20;99.90;;;;;;5057147;28;20021;-45
2023/08/06 10:46:37;;;;;;;0.85;0.30;;;19.20;99.90;;;;;;5055285;28;20036;-43
2023/08/06 10:49:04;;;;;;;0.30;0.20;;;19.20;99.90;;;;;;5053781;28;20021;-45
2023/08/06 10:51:30;;;;;;;0.40;0.20;;;19.20;99.90;;;;;;5053865;28;20025;-43
2023/08/06 10:53:57;;;;;;;0.88;0.30;;;19.30;99.90;;;;;;5054011;28;20153;-46
2023/08/06 10:56:27;;;;;;;0.57;0.17;;;19.20;99.90;;;;;;5053876;28;20074;-45
2023/08/06 10:58:56;;;;;;;0.40;0.20;;;19.30;99.90;;;;;;5053629;28;20029;-45
2023/08/06 11:01:23;;;;;;;0.93;0.32;;;19.30;99.90;;;;;;5053647;28;20388;-44
2023/08/06 11:03:50;;;;;;;0.30;0.10;;;19.20;99.90;;;;;;5053516;28;20021;-45
2023/08/06 11:06:20;;;;;;;0.40;0.20;;;19.30;99.90;;;;;;5053925;28;20376;-43
2023/08/06 11:08:50;;;;;;;0.77;0.22;;;19.30;99.90;;;;;;5053446;28;20029;-44
2023/08/06 11:11:17;;;;;;;0.68;0.20;;;19.30;99.90;;;;;;5053531;28;20025;-42
2023/08/06 11:13:46;;;;;;;0.47;0.40;;;19.30;99.90;;;;;;5053483;28;20048;-44
2023/08/06 11:16:16;;;;;;;0.25;0.20;;;19.20;99.90;;;;;;5053495;28;20028;-42
2023/08/06 11:18:42;;;;;;;0.50;0.20;;;19.20;99.90;;;;;;5053392;28;20058;-45
2023/08/06 11:21:08;;;;;;;1.08;0.10;;;19.20;99.90;;;;;;5053291;28;20074;-44
2023/08/06 11:23:34;;;;;;;0.20;0.10;;;19.20;99.90;;;;;;5053180;28;20029;-47
2023/08/06 11:26:00;;;;;;;0.30;0.10;;;19.20;99.90;;;;;;5053280;28;20021;-41
2023/08/06 11:28:26;;;;;;;0.75;0.20;;;19.30;99.90;;;;;;5053158;28;20031;-47
2023/08/06 11:30:52;;;;;;;0.40;0.25;;;19.30;99.90;;;;;;5052933;28;20437;-45
2023/08/06 11:33:25;;;;;;;0.25;0.10;;;19.20;99.90;;;;;;5053335;28;20094;-43
2023/08/06 11:35:52;;;;;;;0.53;0.30;;;19.20;99.90;;;;;;5053156;28;20029;-42
2023/08/06 11:38:18;;;;;;;0.20;0.10;;;19.30;99.90;;;;;;5053041;28;20347;-44
2023/08/06 11:40:45;;;;;;;0.20;0.20;;;19.20;99.90;;;;;;5052876;28;20033;-44
2023/08/06 11:43:12;;;;;;;0.47;0.20;;;19.20;99.90;;;;;;5053409;28;20515;-44
2023/08/06 11:45:38;;;;;;;0.70;0.30;;;19.20;99.90;;;;;;5052835;28;20033;-46
2023/08/06 11:48:05;;;;;;;0.30;0.30;;;19.20;99.90;;;;;;5052822;28;20039;-43
2023/08/06 11:50:31;;;;;;;0.47;0.20;;;19.20;99.90;;;;;;5053016;28;20131;-41
2023/08/06 11:52:58;;;;;;;0.32;0.30;;;19.20;99.90;;;;;;5052711;28;20504;-45
2023/08/06 11:55:25;;;;;;;0.30;0.20;;;19.20;99.90;;;;;;5052785;28;20079;-44
2023/08/06 11:57:51;;;;;;;0.30;0.20;;;19.20;99.90;;;;;;5052213;28;20025;-44
2023/08/06 12:00:18;;;;;;;0.10;0.10;;;19.20;99.90;;;;;;5052343;28;20033;-44
2023/08/06 12:02:45;;;;;;;1.25;0.35;;;19.20;99.90;;;;;;5052523;28;20025;-44
2023/08/06 12:05:13;;;;;;;0.47;0.30;;;19.20;99.90;;;;;;5052593;28;20050;-42
2023/08/06 12:07:41;;;;;;;0.43;0.30;;;19.20;99.90;;;;;;5052423;28;20086;-44
2023/08/06 12:10:07;;;;;;;0.35;0.25;;;19.20;99.90;;;;;;5052217;28;20094;-44
2023/08/06 12:12:34;;;;;;;0.85;0.30;;;19.20;99.90;;;;;;5052154;28;20025;-44
2023/08/06 12:15:00;;;;;;;0.73;0.40;;;19.20;99.90;;;;;;5052314;28;20517;-44
2023/08/06 12:17:26;;;;;;;0.20;0.10;;;19.20;99.90;;;;;;5052307;28;20068;-43
2023/08/06 12:19:51;;;;;;;0.57;0.20;;;19.20;99.90;;;;;;5052079;28;20029;-44
2023/08/06 12:22:18;;;;;;;0.28;0.20;;;19.20;99.90;;;;;;5052240;28;20032;-45
2023/08/06 12:24:44;;;;;;;0.85;0.30;;;19.20;99.90;;;;;;5051931;28;20036;-46
2023/08/06 12:27:10;;;;;;;0.38;0.20;;;19.20;99.90;;;;;;5052426;28;20028;-44
2023/08/06 12:29:40;;;;;;;0.90;0.45;;;19.20;99.90;;;;;;5051887;28;20515;-44
2023/08/06 12:32:06;;;;;;;0.38;0.28;;;19.20;99.90;;;;;;5052052;28;20021;-42
2023/08/06 12:34:31;;;;;;;0.93;0.47;;;19.20;99.90;;;;;;5051925;28;20590;-44
2023/08/06 12:36:57;;;;;;;1.05;0.30;;;19.20;99.90;;;;;;5052021;28;20396;-43
2023/08/06 12:39:23;;;;;;;0.73;0.38;;;19.20;99.90;;;;;;5051662;28;20476;-45
2023/08/06 12:41:49;;;;;;;0.80;0.40;;;19.20;99.90;;;;;;5051742;28;20021;-44
2023/08/06 12:44:14;;;;;;;0.60;0.30;;;19.20;99.90;;;;;;5051746;28;20107;-44